Terminal Aerodrome Forecast
Issued by NWS Mt. Holly, NJ

Home | Current Version | Previous Version | Text Only | Print | Product List | Glossary On
Versions: 1 2 3 4 5 6 7 8 9 10 11 12 13 14 15 16 17 18 19 20 21 22 23 24 25
000
FTUS41 KPHI 262300
TAFRDG
TAF
KRDG 262329Z 2700/2724 33007KT 4SM -SN BR OVC015
     FM270200 32008KT 4SM BR OVC020
     FM270600 32004KT 5SM BR OVC025
     FM271400 33005KT P6SM BKN040=

USA.gov is the U.S. government's official web portal to all federal, state and local government web resources and services.